createdAt,value
2017-08-09T00:00:32.785Z,0
2017-08-09T00:01:34.444Z,0
2017-08-09T00:02:36.104Z,0
2017-08-09T00:03:37.764Z,0
2017-08-09T00:04:39.419Z,0
2017-08-09T00:05:41.087Z,0
2017-08-09T00:06:42.751Z,0
2017-08-09T00:07:45.155Z,0
2017-08-09T00:08:46.813Z,0
2017-08-09T00:09:48.474Z,0
2017-08-09T00:10:50.132Z,0
2017-08-09T00:11:51.798Z,0
2017-08-09T00:12:53.456Z,0
2017-08-09T00:13:55.118Z,0
2017-08-09T00:14:56.782Z,0
2017-08-09T00:15:58.437Z,0
2017-08-09T00:17:00.097Z,0
2017-08-09T00:18:01.761Z,0
2017-08-09T00:19:03.423Z,0
2017-08-09T00:20:07.809Z,0
2017-08-09T00:21:08.779Z,0
2017-08-09T00:22:10.449Z,0
2017-08-09T00:23:12.678Z,0
2017-08-09T00:24:14.338Z,0
2017-08-09T00:25:16.008Z,0
2017-08-09T00:26:17.667Z,0
2017-08-09T00:27:19.330Z,0
2017-08-09T00:28:20.989Z,0
2017-08-09T00:29:22.645Z,0
2017-08-09T00:30:24.325Z,0
2017-08-09T00:31:25.963Z,0
2017-08-09T00:32:27.619Z,0
2017-08-09T00:33:29.289Z,0
2017-08-09T00:34:30.953Z,0
2017-08-09T00:35:32.619Z,0
2017-08-09T00:36:34.284Z,0
2017-08-09T00:37:35.935Z,0
2017-08-09T00:38:37.599Z,0
2017-08-09T00:39:39.257Z,0
2017-08-09T00:40:40.932Z,0
2017-08-09T00:41:42.593Z,0
2017-08-09T00:42:44.261Z,0
2017-08-09T00:43:45.918Z,0
2017-08-09T00:44:47.592Z,0
2017-08-09T00:45:49.256Z,0
2017-08-09T00:46:50.908Z,0
2017-08-09T00:47:52.566Z,0
2017-08-09T00:48:54.236Z,0
2017-08-09T00:49:56.851Z,0
2017-08-09T00:50:58.509Z,0
2017-08-09T00:52:00.160Z,0
2017-08-09T00:53:01.822Z,0
2017-08-09T00:54:03.490Z,0
2017-08-09T00:55:05.172Z,0
2017-08-09T00:56:06.841Z,0
2017-08-09T00:57:08.534Z,0
2017-08-09T00:58:10.200Z,0
2017-08-09T00:59:11.859Z,0
2017-08-09T01:00:13.520Z,0
2017-08-09T01:01:15.185Z,0
2017-08-09T01:02:16.843Z,0
2017-08-09T01:03:18.518Z,0
2017-08-09T01:04:20.178Z,0
2017-08-09T01:05:21.848Z,0
2017-08-09T01:06:23.507Z,0
2017-08-09T01:07:25.175Z,0
2017-08-09T01:08:26.832Z,0
2017-08-09T01:09:28.505Z,0
2017-08-09T01:10:30.162Z,0
2017-08-09T01:11:31.830Z,0
2017-08-09T01:12:33.489Z,0
2017-08-09T01:13:35.150Z,0
2017-08-09T01:14:36.814Z,0
2017-08-09T01:15:38.470Z,0
2017-08-09T01:16:40.129Z,0
2017-08-09T01:17:41.787Z,0
2017-08-09T01:18:43.451Z,0
2017-08-09T01:19:45.119Z,0
2017-08-09T01:20:46.774Z,0
2017-08-09T01:21:48.432Z,0
2017-08-09T01:22:50.081Z,0
2017-08-09T01:23:51.750Z,0
2017-08-09T01:24:53.406Z,0
2017-08-09T01:25:55.070Z,0
2017-08-09T01:26:56.738Z,0
2017-08-09T01:27:58.394Z,0
2017-08-09T01:29:00.077Z,0
2017-08-09T01:30:01.725Z,0
2017-08-09T01:31:03.389Z,0
2017-08-09T01:32:05.055Z,0
2017-08-09T01:33:06.710Z,0
2017-08-09T01:34:08.374Z,0
2017-08-09T01:35:10.037Z,0
2017-08-09T01:36:11.693Z,0
2017-08-09T01:37:13.357Z,0
2017-08-09T01:38:15.016Z,0
2017-08-09T01:39:16.681Z,0
2017-08-09T01:40:18.337Z,0
2017-08-09T01:41:19.990Z,0
2017-08-09T01:42:21.653Z,0
2017-08-09T01:43:23.313Z,0
2017-08-09T01:44:24.969Z,0
2017-08-09T01:45:26.629Z,0
2017-08-09T01:46:28.292Z,0
2017-08-09T01:47:29.950Z,0
2017-08-09T01:48:31.618Z,0
2017-08-09T01:49:33.277Z,0
2017-08-09T01:50:34.939Z,0
2017-08-09T01:51:36.593Z,0
2017-08-09T01:52:38.255Z,0
2017-08-09T01:53:39.910Z,0
2017-08-09T01:54:41.569Z,0
2017-08-09T01:55:43.226Z,0
2017-08-09T01:56:44.893Z,0
2017-08-09T01:57:46.548Z,0
2017-08-09T01:58:48.208Z,0
2017-08-09T01:59:49.862Z,0
2017-08-09T02:00:51.520Z,0
2017-08-09T02:01:53.183Z,0
2017-08-09T02:02:54.843Z,0
2017-08-09T02:03:56.493Z,0
2017-08-09T02:04:58.155Z,0
2017-08-09T02:05:59.819Z,0
2017-08-09T02:07:01.468Z,0
2017-08-09T02:08:03.131Z,0
2017-08-09T02:09:04.794Z,0
2017-08-09T02:10:06.446Z,0
2017-08-09T02:11:08.105Z,0
2017-08-09T02:12:09.755Z,0
2017-08-09T02:13:11.421Z,0
2017-08-09T02:14:13.082Z,0
2017-08-09T02:15:14.737Z,0
2017-08-09T02:16:16.403Z,0
2017-08-09T02:17:18.068Z,0
2017-08-09T02:18:19.725Z,0
2017-08-09T02:19:21.388Z,0
2017-08-09T02:20:23.050Z,0
2017-08-09T02:21:24.717Z,0
2017-08-09T02:22:26.378Z,0
2017-08-09T02:23:28.042Z,0
2017-08-09T02:24:29.706Z,0
2017-08-09T02:25:31.369Z,0
2017-08-09T02:26:33.039Z,0
2017-08-09T02:27:34.690Z,0
2017-08-09T02:28:36.348Z,0
2017-08-09T02:29:38.004Z,0
2017-08-09T02:30:39.673Z,0
2017-08-09T02:31:41.342Z,0
2017-08-09T02:32:42.995Z,0
2017-08-09T02:33:44.652Z,0
2017-08-09T02:34:46.311Z,0
2017-08-09T02:35:47.969Z,0
2017-08-09T02:36:49.624Z,0
2017-08-09T02:37:51.290Z,0
2017-08-09T02:38:52.951Z,0
2017-08-09T02:39:54.612Z,0
2017-08-09T02:40:56.264Z,0
2017-08-09T02:41:57.921Z,0
2017-08-09T02:42:59.580Z,0
2017-08-09T02:44:01.247Z,0
2017-08-09T02:45:02.900Z,0
2017-08-09T02:46:04.557Z,0
2017-08-09T02:47:06.215Z,0
2017-08-09T02:48:07.880Z,0
2017-08-09T02:49:09.535Z,0
2017-08-09T02:50:11.188Z,0
2017-08-09T02:51:12.848Z,0
2017-08-09T02:52:14.506Z,0
2017-08-09T02:53:16.166Z,0
2017-08-09T02:54:17.822Z,0
2017-08-09T02:55:19.478Z,0
2017-08-09T02:56:21.134Z,0
2017-08-09T02:57:22.805Z,0
2017-08-09T02:58:24.461Z,0
2017-08-09T02:59:26.139Z,0
2017-08-09T03:00:27.797Z,0
2017-08-09T03:01:29.450Z,0
2017-08-09T03:02:31.111Z,0
2017-08-09T03:03:32.768Z,0
2017-08-09T03:04:34.429Z,0
2017-08-09T03:05:36.095Z,0
2017-08-09T03:06:37.751Z,0
2017-08-09T03:07:39.411Z,0
2017-08-09T03:08:41.084Z,0
2017-08-09T03:09:42.763Z,0
2017-08-09T03:10:44.409Z,0
2017-08-09T03:11:46.070Z,0
2017-08-09T03:12:47.733Z,0
2017-08-09T03:13:49.391Z,0
2017-08-09T03:14:51.061Z,0
2017-08-09T03:15:52.711Z,0
2017-08-09T03:16:54.372Z,0
2017-08-09T03:17:56.027Z,0
2017-08-09T03:18:57.688Z,0
2017-08-09T03:19:59.355Z,0
2017-08-09T03:21:01.021Z,0
2017-08-09T03:22:02.697Z,0
2017-08-09T03:23:04.349Z,0
2017-08-09T03:24:06.009Z,0
2017-08-09T03:25:07.665Z,0
2017-08-09T03:26:09.325Z,0
2017-08-09T03:27:10.978Z,0
2017-08-09T03:28:12.635Z,0
2017-08-09T03:29:14.299Z,0
2017-08-09T03:30:15.952Z,0
2017-08-09T03:31:17.634Z,0
2017-08-09T03:32:19.264Z,0
2017-08-09T03:33:20.922Z,0
2017-08-09T03:34:22.576Z,0
2017-08-09T03:35:24.229Z,0
2017-08-09T03:36:25.895Z,0
2017-08-09T03:37:27.570Z,0
2017-08-09T03:38:29.265Z,0
2017-08-09T03:39:30.935Z,0
2017-08-09T03:40:32.584Z,0
2017-08-09T03:41:34.249Z,0
2017-08-09T03:42:35.912Z,0
2017-08-09T03:43:37.588Z,0
2017-08-09T03:44:39.235Z,0
2017-08-09T03:45:40.897Z,0
2017-08-09T03:46:42.559Z,0
2017-08-09T03:47:44.238Z,0
2017-08-09T03:48:45.896Z,0
2017-08-09T03:49:47.559Z,0
2017-08-09T03:50:49.225Z,0
2017-08-09T03:51:50.875Z,0
2017-08-09T03:52:52.533Z,0
2017-08-09T03:53:54.193Z,0
2017-08-09T03:54:55.854Z,0
2017-08-09T03:55:57.515Z,0
2017-08-09T03:56:59.173Z,0
2017-08-09T03:58:00.836Z,0
2017-08-09T03:59:02.501Z,5
2017-08-09T04:00:04.159Z,5
2017-08-09T04:01:05.822Z,5
2017-08-09T04:02:07.483Z,5
2017-08-09T04:03:09.143Z,5
2017-08-09T04:04:10.805Z,10
2017-08-09T04:05:12.472Z,10
2017-08-09T04:06:14.135Z,10
2017-08-09T04:07:15.797Z,10
2017-08-09T04:08:17.463Z,10
2017-08-09T04:09:19.122Z,10
2017-08-09T04:10:20.781Z,5
2017-08-09T04:11:22.467Z,5
2017-08-09T04:12:24.130Z,10
2017-08-09T04:13:25.795Z,10
2017-08-09T04:14:27.455Z,10
2017-08-09T04:15:29.112Z,5
2017-08-09T04:16:30.781Z,5
2017-08-09T04:17:32.442Z,5
2017-08-09T04:18:34.103Z,10
2017-08-09T04:19:35.793Z,10
2017-08-09T04:20:37.454Z,10
2017-08-09T04:21:39.113Z,10
2017-08-09T04:22:40.784Z,15
2017-08-09T04:23:42.437Z,15
2017-08-09T04:24:44.099Z,15
2017-08-09T04:25:45.761Z,15
2017-08-09T04:26:47.429Z,15
2017-08-09T04:27:49.086Z,20
2017-08-09T04:28:50.745Z,20
2017-08-09T04:29:52.416Z,25
2017-08-09T04:30:54.086Z,30
2017-08-09T04:31:55.758Z,30
2017-08-09T04:32:57.420Z,30
2017-08-09T04:33:59.103Z,30
2017-08-09T04:35:00.741Z,30
2017-08-09T04:36:02.408Z,30
2017-08-09T04:37:04.075Z,35
2017-08-09T04:38:05.744Z,35
2017-08-09T04:39:07.410Z,35
2017-08-09T04:40:09.087Z,35
2017-08-09T04:41:10.755Z,40
2017-08-09T04:42:12.449Z,45
2017-08-09T04:43:14.110Z,45
2017-08-09T04:44:15.773Z,50
2017-08-09T04:45:17.440Z,40
2017-08-09T04:46:19.099Z,35
2017-08-09T04:47:20.759Z,30
2017-08-09T04:48:22.425Z,25
2017-08-09T04:49:24.089Z,20
2017-08-09T04:50:25.754Z,25
2017-08-09T04:51:28.335Z,25
2017-08-09T04:52:29.023Z,30
2017-08-09T04:53:30.682Z,35
2017-08-09T04:54:32.347Z,40
2017-08-09T04:55:34.024Z,45
2017-08-09T04:56:35.679Z,50
2017-08-09T04:57:37.343Z,50
2017-08-09T04:58:39.016Z,60
2017-08-09T04:59:40.674Z,70
2017-08-09T05:00:42.342Z,75
2017-08-09T05:01:44.004Z,80
2017-08-09T05:02:45.682Z,70
2017-08-09T05:03:47.345Z,50
2017-08-09T05:04:49.027Z,55
2017-08-09T05:05:50.693Z,70
2017-08-09T05:06:52.365Z,55
2017-08-09T05:07:54.029Z,45
2017-08-09T05:08:55.695Z,50
2017-08-09T05:09:57.351Z,65
2017-08-09T05:10:59.009Z,75
2017-08-09T05:12:00.668Z,75
2017-08-09T05:13:02.336Z,70
2017-08-09T05:14:04.009Z,70
2017-08-09T05:15:05.693Z,70
2017-08-09T05:16:07.359Z,70
2017-08-09T05:17:09.029Z,70
2017-08-09T05:18:10.690Z,80
2017-08-09T05:19:12.349Z,75
2017-08-09T05:20:14.015Z,55
2017-08-09T05:21:15.683Z,50
2017-08-09T05:22:17.347Z,70
2017-08-09T05:23:19.013Z,75
2017-08-09T05:24:20.678Z,80
2017-08-09T05:25:22.342Z,85
2017-08-09T05:26:24.008Z,100
2017-08-09T05:27:25.666Z,105
2017-08-09T05:28:27.358Z,95
2017-08-09T05:29:29.030Z,80
2017-08-09T05:30:30.701Z,70
2017-08-09T05:31:32.369Z,70
2017-08-09T05:32:34.049Z,85
2017-08-09T05:33:35.718Z,90
2017-08-09T05:34:37.382Z,100
2017-08-09T05:35:39.048Z,105
2017-08-09T05:36:40.719Z,90
2017-08-09T05:37:42.397Z,70
2017-08-09T05:38:44.069Z,75
2017-08-09T05:39:45.746Z,110
2017-08-09T05:40:47.439Z,115
2017-08-09T05:41:49.114Z,125
2017-08-09T05:42:51.480Z,110
2017-08-09T05:43:53.143Z,105
2017-08-09T05:44:54.808Z,95
2017-08-09T05:45:56.486Z,100
2017-08-09T05:46:58.139Z,100
2017-08-09T05:47:59.801Z,95
2017-08-09T05:49:01.471Z,85
2017-08-09T05:50:03.133Z,90
2017-08-09T05:51:04.804Z,90
2017-08-09T05:52:06.479Z,85
2017-08-09T05:53:08.152Z,90
2017-08-09T05:54:09.811Z,90
2017-08-09T05:55:11.485Z,105
2017-08-09T05:56:13.155Z,130
2017-08-09T05:57:14.824Z,135
2017-08-09T05:58:16.490Z,135
2017-08-09T05:59:18.149Z,130
2017-08-09T06:00:19.822Z,135
2017-08-09T06:01:21.489Z,155
2017-08-09T06:02:23.155Z,160
2017-08-09T06:03:24.819Z,150
2017-08-09T06:04:26.487Z,135
2017-08-09T06:05:28.153Z,135
2017-08-09T06:06:29.825Z,115
2017-08-09T06:07:31.494Z,105
2017-08-09T06:08:33.159Z,100
2017-08-09T06:09:34.827Z,110
2017-08-09T06:10:36.492Z,125
2017-08-09T06:11:38.162Z,190
2017-08-09T06:12:39.826Z,175
2017-08-09T06:13:41.503Z,130
2017-08-09T06:14:43.171Z,130
2017-08-09T06:15:44.843Z,115
2017-08-09T06:16:46.493Z,95
2017-08-09T06:17:48.158Z,90
2017-08-09T06:18:49.829Z,80
2017-08-09T06:19:51.504Z,70
2017-08-09T06:20:53.170Z,60
2017-08-09T06:21:54.833Z,60
2017-08-09T06:22:56.497Z,55
2017-08-09T06:23:58.166Z,70
2017-08-09T06:24:59.829Z,95
2017-08-09T06:26:01.490Z,100
2017-08-09T06:27:03.159Z,115
2017-08-09T06:28:04.818Z,115
2017-08-09T06:29:06.481Z,115
2017-08-09T06:30:08.146Z,130
2017-08-09T06:31:09.811Z,175
2017-08-09T06:32:11.487Z,195
2017-08-09T06:33:13.156Z,200
2017-08-09T06:34:14.820Z,215
2017-08-09T06:35:16.492Z,230
2017-08-09T06:36:18.187Z,245
2017-08-09T06:37:19.828Z,205
2017-08-09T06:38:21.488Z,205
2017-08-09T06:39:23.146Z,205
2017-08-09T06:40:24.806Z,180
2017-08-09T06:41:26.467Z,200
2017-08-09T06:42:28.135Z,205
2017-08-09T06:43:29.803Z,235
2017-08-09T06:44:31.464Z,275
2017-08-09T06:45:33.124Z,260
2017-08-09T06:46:34.792Z,240
2017-08-09T06:47:36.455Z,225
2017-08-09T06:48:38.167Z,280
2017-08-09T06:49:39.852Z,325
2017-08-09T06:50:41.517Z,230
2017-08-09T06:51:43.181Z,230
2017-08-09T06:52:44.843Z,240
2017-08-09T06:53:46.516Z,230
2017-08-09T06:54:48.185Z,250
2017-08-09T06:55:49.853Z,315
2017-08-09T06:56:51.515Z,495
2017-08-09T06:57:53.177Z,595
2017-08-09T06:58:54.842Z,600
2017-08-09T06:59:56.518Z,600
2017-08-09T07:00:58.184Z,640
2017-08-09T07:01:59.847Z,590
2017-08-09T07:03:01.515Z,475
2017-08-09T07:04:03.176Z,400
2017-08-09T07:05:04.852Z,340
2017-08-09T07:06:06.511Z,240
2017-08-09T07:07:08.174Z,230
2017-08-09T07:08:09.841Z,235
2017-08-09T07:09:11.506Z,325
2017-08-09T07:10:13.176Z,300
2017-08-09T07:11:14.842Z,250
2017-08-09T07:12:16.510Z,220
2017-08-09T07:13:18.180Z,245
2017-08-09T07:14:19.850Z,320
2017-08-09T07:15:21.522Z,330
2017-08-09T07:16:23.192Z,375
2017-08-09T07:17:24.857Z,425
2017-08-09T07:18:26.530Z,460
2017-08-09T07:19:28.200Z,510
2017-08-09T07:20:29.864Z,590
2017-08-09T07:21:31.569Z,600
2017-08-09T07:22:33.200Z,535
2017-08-09T07:23:34.869Z,470
2017-08-09T07:24:36.532Z,440
2017-08-09T07:25:38.209Z,520
2017-08-09T07:26:39.929Z,595
2017-08-09T07:27:41.596Z,695
2017-08-09T07:28:43.260Z,650
2017-08-09T07:29:44.917Z,530
2017-08-09T07:30:46.588Z,510
2017-08-09T07:31:48.308Z,505
2017-08-09T07:32:49.974Z,500
2017-08-09T07:33:51.650Z,540
2017-08-09T07:34:53.318Z,655
2017-08-09T07:35:54.978Z,765
2017-08-09T07:36:56.647Z,765
2017-08-09T07:37:58.320Z,680
2017-08-09T07:38:59.985Z,670
2017-08-09T07:40:01.652Z,610
2017-08-09T07:41:03.327Z,680
2017-08-09T07:42:04.984Z,790
2017-08-09T07:43:06.650Z,900
2017-08-09T07:44:08.316Z,1075
2017-08-09T07:45:09.992Z,1260
2017-08-09T07:46:11.664Z,970
2017-08-09T07:47:13.408Z,815
2017-08-09T07:48:15.077Z,1175
2017-08-09T07:49:16.750Z,1080
2017-08-09T07:50:18.407Z,1020
2017-08-09T07:51:20.078Z,1010
2017-08-09T07:52:21.748Z,905
2017-08-09T07:53:23.420Z,815
2017-08-09T07:54:25.084Z,835
2017-08-09T07:55:26.773Z,1015
2017-08-09T07:56:28.440Z,900
2017-08-09T07:57:30.162Z,800
2017-08-09T07:58:31.833Z,810
2017-08-09T07:59:33.496Z,815
2017-08-09T08:00:35.173Z,905
2017-08-09T08:01:36.845Z,995
2017-08-09T08:02:38.530Z,900
2017-08-09T08:03:40.192Z,750
2017-08-09T08:04:41.864Z,615
2017-08-09T08:05:43.531Z,630
2017-08-09T08:06:45.209Z,695
2017-08-09T08:07:46.865Z,820
2017-08-09T08:08:48.536Z,935
2017-08-09T08:09:50.207Z,955
2017-08-09T08:10:51.888Z,855
2017-08-09T08:11:53.555Z,805
2017-08-09T08:12:55.227Z,805
2017-08-09T08:13:56.889Z,775
2017-08-09T08:14:58.568Z,840
2017-08-09T08:16:00.236Z,775
2017-08-09T08:17:01.973Z,795
2017-08-09T08:18:03.639Z,680
2017-08-09T08:19:05.349Z,640
2017-08-09T08:20:07.087Z,640
2017-08-09T08:21:08.762Z,790
2017-08-09T08:22:10.426Z,1510
2017-08-09T08:23:12.120Z,1525
2017-08-09T08:24:13.800Z,2645
2017-08-09T08:25:15.529Z,1300
2017-08-09T08:26:17.198Z,1670
2017-08-09T08:27:18.869Z,2915
2017-08-09T08:28:20.541Z,1760
2017-08-09T08:29:22.209Z,810
2017-08-09T08:30:23.898Z,695
2017-08-09T08:31:25.594Z,540
2017-08-09T08:32:27.247Z,515
2017-08-09T08:33:28.920Z,575
2017-08-09T08:34:30.593Z,720
2017-08-09T08:35:32.264Z,735
2017-08-09T08:36:33.942Z,635
2017-08-09T08:37:35.617Z,545
2017-08-09T08:38:37.298Z,475
2017-08-09T08:39:38.970Z,460
2017-08-09T08:40:40.640Z,505
2017-08-09T08:41:42.312Z,550
2017-08-09T08:42:43.996Z,555
2017-08-09T08:43:45.668Z,635
2017-08-09T08:44:47.334Z,780
2017-08-09T08:45:49.014Z,880
2017-08-09T08:46:50.694Z,910
2017-08-09T08:47:52.357Z,925
2017-08-09T08:48:54.023Z,990
2017-08-09T08:49:55.692Z,1065
2017-08-09T08:50:57.360Z,960
2017-08-09T08:51:59.036Z,1075
2017-08-09T08:53:00.767Z,970
2017-08-09T08:54:02.432Z,830
2017-08-09T08:55:04.083Z,815
2017-08-09T08:56:05.755Z,975
2017-08-09T08:57:07.436Z,1780
2017-08-09T08:58:09.104Z,1275
2017-08-09T08:59:10.775Z,850
2017-08-09T09:00:12.446Z,1305
2017-08-09T09:01:14.124Z,925
2017-08-09T09:02:15.831Z,845
2017-08-09T09:03:17.469Z,785
2017-08-09T09:04:19.139Z,945
2017-08-09T09:05:20.814Z,925
2017-08-09T09:06:22.483Z,2140
2017-08-09T09:07:24.163Z,2200
2017-08-09T09:08:25.841Z,2220
2017-08-09T09:09:27.604Z,2150
2017-08-09T09:10:29.284Z,2190
2017-08-09T09:11:30.973Z,2245
2017-08-09T09:12:32.647Z,2205
2017-08-09T09:13:34.334Z,2275
2017-08-09T09:14:36.021Z,2385
2017-08-09T09:15:37.702Z,2605
2017-08-09T09:16:39.384Z,2760
2017-08-09T09:17:41.070Z,2465
2017-08-09T09:18:42.759Z,1870
2017-08-09T09:19:44.440Z,2840
2017-08-09T09:20:46.121Z,2655
2017-08-09T09:21:47.807Z,2945
2017-08-09T09:22:49.490Z,3090
2017-08-09T09:23:51.171Z,2955
2017-08-09T09:24:52.853Z,2660
2017-08-09T09:25:54.549Z,2805
2017-08-09T09:26:56.411Z,2695
2017-08-09T09:27:58.097Z,915
2017-08-09T09:28:59.790Z,970
2017-08-09T09:30:01.468Z,1090
2017-08-09T09:31:03.152Z,2405
2017-08-09T09:32:04.830Z,1135
2017-08-09T09:33:06.507Z,1120
2017-08-09T09:34:08.195Z,1155
2017-08-09T09:35:09.894Z,1680
2017-08-09T09:36:11.567Z,2255
2017-08-09T09:37:13.249Z,2715
2017-08-09T09:38:14.931Z,1830
2017-08-09T09:39:16.605Z,1950
2017-08-09T09:40:18.286Z,1085
2017-08-09T09:41:19.960Z,790
2017-08-09T09:42:21.652Z,695
2017-08-09T09:43:23.372Z,690
2017-08-09T09:44:25.055Z,775
2017-08-09T09:45:26.741Z,2530
2017-08-09T09:46:28.417Z,990
2017-08-09T09:47:30.101Z,895
2017-08-09T09:48:31.775Z,2410
2017-08-09T09:49:33.471Z,1925
2017-08-09T09:50:35.143Z,1245
2017-08-09T09:51:36.815Z,925
2017-08-09T09:52:38.621Z,815
2017-08-09T09:53:40.319Z,795
2017-08-09T09:54:41.996Z,775
2017-08-09T09:55:43.660Z,865
2017-08-09T09:56:45.338Z,1610
2017-08-09T09:57:47.021Z,1945
2017-08-09T09:58:48.690Z,1695
2017-08-09T09:59:50.366Z,2250
2017-08-09T10:00:52.035Z,845
2017-08-09T10:01:53.705Z,855
2017-08-09T10:02:55.416Z,1245
2017-08-09T10:03:57.088Z,880
2017-08-09T10:04:58.760Z,1035
2017-08-09T10:06:00.451Z,1245
2017-08-09T10:07:02.127Z,1465
2017-08-09T10:08:03.809Z,1350
2017-08-09T10:09:05.531Z,1940
2017-08-09T10:10:07.211Z,1930
2017-08-09T10:11:08.887Z,2045
2017-08-09T10:12:10.566Z,1955
2017-08-09T10:13:12.246Z,1980
2017-08-09T10:14:13.929Z,1625
2017-08-09T10:15:15.608Z,1395
2017-08-09T10:16:17.287Z,1655
2017-08-09T10:17:18.967Z,805
2017-08-09T10:18:20.649Z,1260
2017-08-09T10:19:22.334Z,745
2017-08-09T10:20:24.009Z,4190
2017-08-09T10:21:25.684Z,4735
2017-08-09T10:22:27.363Z,4290
2017-08-09T10:23:29.048Z,4375
2017-08-09T10:24:30.737Z,3615
2017-08-09T10:25:32.418Z,3755
2017-08-09T10:26:34.096Z,2100
2017-08-09T10:27:35.770Z,4375
2017-08-09T10:28:37.458Z,1145
2017-08-09T10:29:39.140Z,1165
2017-08-09T10:30:40.814Z,1265
2017-08-09T10:31:42.501Z,4500
2017-08-09T10:32:44.191Z,4410
2017-08-09T10:33:45.877Z,4125
2017-08-09T10:34:47.549Z,865
2017-08-09T10:35:49.233Z,1605
2017-08-09T10:36:50.920Z,4395
2017-08-09T10:37:52.598Z,4565
2017-08-09T10:38:54.282Z,1220
2017-08-09T10:39:55.964Z,1385
2017-08-09T10:40:57.651Z,1345
2017-08-09T10:41:59.349Z,1095
2017-08-09T10:43:01.027Z,4410
2017-08-09T10:44:04.228Z,1515
2017-08-09T10:45:05.938Z,3985
2017-08-09T10:46:07.620Z,1535
2017-08-09T10:47:09.298Z,1305
2017-08-09T10:48:10.985Z,845
2017-08-09T10:49:12.652Z,1145
2017-08-09T10:50:14.355Z,915
2017-08-09T10:51:16.028Z,865
2017-08-09T10:52:17.705Z,940
2017-08-09T10:53:19.376Z,1630
2017-08-09T10:54:21.078Z,1140
2017-08-09T10:55:22.765Z,1120
2017-08-09T10:56:24.435Z,4625
2017-08-09T10:57:26.108Z,3910
2017-08-09T10:58:27.787Z,3920
2017-08-09T10:59:29.467Z,4330
2017-08-09T11:00:31.148Z,1635
2017-08-09T11:01:33.656Z,935
2017-08-09T11:02:35.351Z,4265
2017-08-09T11:03:37.030Z,3855
2017-08-09T11:04:38.707Z,2760
2017-08-09T11:05:40.401Z,2205
2017-08-09T11:06:44.415Z,2555
2017-08-09T11:07:46.106Z,2130
2017-08-09T11:08:47.790Z,3340
2017-08-09T11:09:49.466Z,2115
2017-08-09T11:10:51.151Z,2645
2017-08-09T11:11:52.849Z,4330
2017-08-09T11:12:54.521Z,3970
2017-08-09T11:13:56.231Z,4095
2017-08-09T11:14:57.934Z,4280
2017-08-09T11:15:59.611Z,4500
2017-08-09T11:17:01.292Z,1375
2017-08-09T11:18:03.041Z,1850
2017-08-09T11:19:04.728Z,1415
2017-08-09T11:20:06.407Z,4275
2017-08-09T11:21:08.086Z,3795
2017-08-09T11:22:09.781Z,3955
2017-08-09T11:23:11.455Z,3335
2017-08-09T11:24:13.142Z,4135
2017-08-09T11:25:14.827Z,3680
2017-08-09T11:26:16.510Z,1425
2017-08-09T11:27:18.189Z,860
2017-08-09T11:28:19.875Z,920
2017-08-09T11:29:21.556Z,4230
2017-08-09T11:30:23.243Z,3040
2017-08-09T11:31:24.935Z,4115
2017-08-09T11:32:26.608Z,4060
2017-08-09T11:33:28.290Z,3990
2017-08-09T11:34:29.969Z,975
2017-08-09T11:35:31.649Z,700
2017-08-09T11:36:33.328Z,990
2017-08-09T11:37:35.012Z,3225
2017-08-09T11:38:36.699Z,4270
2017-08-09T11:39:38.375Z,4180
2017-08-09T11:40:40.049Z,3705
2017-08-09T11:41:41.724Z,810
2017-08-09T11:42:43.445Z,1445
2017-08-09T11:43:45.127Z,915
2017-08-09T11:44:46.803Z,970
2017-08-09T11:45:48.492Z,4320
2017-08-09T11:46:50.171Z,4100
2017-08-09T11:47:51.857Z,4175
2017-08-09T11:48:53.537Z,4005
2017-08-09T11:49:55.222Z,4015
2017-08-09T11:50:56.897Z,3975
2017-08-09T11:51:58.591Z,3935
2017-08-09T11:53:00.303Z,3810
2017-08-09T11:54:01.962Z,3565
2017-08-09T11:55:03.660Z,850
2017-08-09T11:56:05.328Z,1735
2017-08-09T11:57:07.006Z,2180
2017-08-09T11:58:08.695Z,3905
2017-08-09T11:59:10.389Z,4025
2017-08-09T12:00:12.080Z,4105
2017-08-09T12:01:13.762Z,4010
2017-08-09T12:02:15.440Z,3480
2017-08-09T12:03:17.127Z,3865
2017-08-09T12:04:18.813Z,3825
2017-08-09T12:05:20.498Z,3910
2017-08-09T12:06:22.192Z,3980
2017-08-09T12:07:23.885Z,4045
2017-08-09T12:08:25.559Z,3925
2017-08-09T12:09:27.239Z,710
2017-08-09T12:10:28.921Z,690
2017-08-09T12:11:30.610Z,645
2017-08-09T12:12:33.209Z,700
2017-08-09T12:13:34.892Z,795
2017-08-09T12:14:36.680Z,1120
2017-08-09T12:15:38.353Z,995
2017-08-09T12:16:40.043Z,1465
2017-08-09T12:17:41.722Z,3255
2017-08-09T12:18:43.394Z,950
2017-08-09T12:19:45.083Z,3920
2017-08-09T12:20:46.765Z,3775
2017-08-09T12:21:48.441Z,3695
2017-08-09T12:22:50.120Z,3670
2017-08-09T12:23:51.798Z,3630
2017-08-09T12:24:53.483Z,3650
2017-08-09T12:25:55.160Z,2570
2017-08-09T12:26:56.847Z,1615
2017-08-09T12:27:58.546Z,2080
2017-08-09T12:29:00.217Z,3695
2017-08-09T12:30:01.893Z,2710
2017-08-09T12:31:03.576Z,3600
2017-08-09T12:32:05.263Z,3750
2017-08-09T12:33:06.938Z,3760
2017-08-09T12:34:09.129Z,1905
2017-08-09T12:35:10.812Z,830
2017-08-09T12:36:12.499Z,945
2017-08-09T12:37:14.177Z,3655
2017-08-09T12:38:15.858Z,3480
2017-08-09T12:39:17.543Z,3185
2017-08-09T12:40:19.237Z,750
2017-08-09T12:41:20.916Z,900
2017-08-09T12:42:22.620Z,1940
2017-08-09T12:43:24.331Z,3505
2017-08-09T12:44:26.078Z,1330
2017-08-09T12:45:27.765Z,2325
2017-08-09T12:46:29.468Z,3720
2017-08-09T12:47:31.142Z,3640
2017-08-09T12:48:32.825Z,3550
2017-08-09T12:49:34.513Z,2840
2017-08-09T12:50:36.201Z,3370
2017-08-09T12:51:37.876Z,780
2017-08-09T12:52:39.556Z,2140
2017-08-09T12:53:41.226Z,950
2017-08-09T12:54:42.905Z,990
2017-08-09T12:55:44.583Z,1355
2017-08-09T12:56:46.256Z,1525
2017-08-09T12:57:47.943Z,2905
2017-08-09T12:58:49.622Z,1155
2017-08-09T12:59:51.297Z,3680
2017-08-09T13:00:52.987Z,3550
2017-08-09T13:01:54.658Z,3985
2017-08-09T13:02:56.349Z,3835
2017-08-09T13:03:58.023Z,3765
2017-08-09T13:04:59.706Z,1030
2017-08-09T13:06:01.386Z,880
2017-08-09T13:07:03.065Z,795
2017-08-09T13:08:04.755Z,835
2017-08-09T13:09:06.436Z,3085
2017-08-09T13:10:08.118Z,915
2017-08-09T13:11:09.795Z,900
2017-08-09T13:12:11.480Z,975
2017-08-09T13:13:13.161Z,970
2017-08-09T13:14:14.839Z,960
2017-08-09T13:15:16.519Z,970
2017-08-09T13:16:18.205Z,2035
2017-08-09T13:17:19.879Z,3495
2017-08-09T13:18:21.568Z,2305
2017-08-09T13:19:23.243Z,1905
2017-08-09T13:20:24.916Z,1910
2017-08-09T13:21:26.593Z,3095
2017-08-09T13:22:28.281Z,2990
2017-08-09T13:23:29.960Z,3055
2017-08-09T13:24:31.641Z,2825
2017-08-09T13:25:33.319Z,1005
2017-08-09T13:26:34.996Z,1080
2017-08-09T13:27:36.679Z,1090
2017-08-09T13:28:38.354Z,990
2017-08-09T13:29:40.042Z,840
2017-08-09T13:30:41.724Z,750
2017-08-09T13:31:43.410Z,725
2017-08-09T13:32:45.089Z,760
2017-08-09T13:33:46.773Z,950
2017-08-09T13:34:48.447Z,910
2017-08-09T13:35:50.116Z,1065
2017-08-09T13:36:51.794Z,930
2017-08-09T13:37:53.479Z,965
2017-08-09T13:38:55.155Z,3000
2017-08-09T13:39:56.835Z,960
2017-08-09T13:40:58.514Z,940
2017-08-09T13:42:00.202Z,985
2017-08-09T13:43:01.882Z,1055
2017-08-09T13:44:03.572Z,2780
2017-08-09T13:45:05.242Z,3135
2017-08-09T13:46:06.924Z,950
2017-08-09T13:47:08.608Z,930
2017-08-09T13:48:10.277Z,915
2017-08-09T13:49:11.962Z,1695
2017-08-09T13:50:13.639Z,2915
2017-08-09T13:51:15.324Z,2970
2017-08-09T13:52:17.009Z,2920
2017-08-09T13:53:18.684Z,1255
2017-08-09T13:54:20.382Z,2480
2017-08-09T13:55:22.056Z,1520
2017-08-09T13:56:23.741Z,2675
2017-08-09T13:57:25.424Z,2700
2017-08-09T13:58:27.099Z,615
2017-08-09T13:59:28.773Z,630
2017-08-09T14:00:30.457Z,2685
2017-08-09T14:01:32.147Z,670
2017-08-09T14:02:33.834Z,2905
2017-08-09T14:03:35.510Z,2675
2017-08-09T14:04:37.182Z,745
2017-08-09T14:05:38.852Z,715
2017-08-09T14:06:40.524Z,840
2017-08-09T14:07:42.213Z,880
2017-08-09T14:08:43.897Z,1685
2017-08-09T14:09:45.590Z,2535
2017-08-09T14:10:47.306Z,2415
2017-08-09T14:11:48.991Z,2410
2017-08-09T14:12:50.665Z,2310
2017-08-09T14:13:52.333Z,2345
2017-08-09T14:14:54.007Z,2240
2017-08-09T14:15:55.696Z,2190
2017-08-09T14:16:57.376Z,2435
2017-08-09T14:17:59.058Z,2395
2017-08-09T14:19:00.730Z,2390
2017-08-09T14:20:02.425Z,2330
2017-08-09T14:21:04.120Z,2265